Time;durP1;ratioP1;P1;durP2;ratioP2;P2;SDS_P1;SDS_P2;PMS_P1;PMS_P2;Temp;Humidity;BMP_temperature;BMP_pressure;BME280_temperature;BME280_humidity;BME280_pressure;Samples;Min_cycle;Max_cycle;Signal;HPM_P1;HPM_P2
2021/11/07 00:00:09;;;;;;;;;;;;;;;11.73;73.55;102175.69;1858763;77;20127;-59
2021/11/07 00:05:05;;;;;;;;;;;;;;;11.76;72.97;102160.66;1859565;77;20115;-59
2021/11/07 00:08:07;;;;;;;;;;;;;;;11.79;72.88;102155.79;1859446;77;20365;-59
2021/11/07 00:10:14;;;;;;;;;;;;;;;11.82;72.68;102157.02;1846648;77;20123;-59
2021/11/07 00:12:42;;;;;;;;;;;;;;;11.74;72.84;102162.47;1859193;77;20114;-59
2021/11/07 00:15:04;;;;;;;;;;;;;;;11.69;72.97;102169.64;1859053;76;20126;-59
2021/11/07 00:17:33;;;;;;;;;;;;;;;11.67;73.06;102170.55;1859511;77;20103;-59
2021/11/07 00:25:15;;;;;;;;;;;;;;;11.63;73.06;102172.84;1859589;77;20123;-59
2021/11/07 00:27:44;;;;;;;;;;;;;;;11.63;73.01;102171.52;1858821;76;20119;-59
2021/11/07 00:35:52;;;;;;;;;;;;;;;11.62;72.94;102169.77;1859436;77;20119;-59
2021/11/07 00:38:13;;;;;;;;;;;;;;;11.65;72.90;102171.03;1858661;77;20189;-59
2021/11/07 00:43:09;;;;;;;;;;;;;;;11.56;72.96;102155.83;1859489;77;20153;-60
2021/11/07 00:50:49;;;;;;;;;;;;;;;11.52;73.17;102151.49;1859434;77;20178;-59
2021/11/07 00:53:23;;;;;;;;;;;;;;;11.53;73.19;102160.30;1859239;77;20141;-61
2021/11/07 00:55:50;;;;;;;;;;;;;;;11.50;73.27;102155.94;1858839;77;20110;-59
2021/11/07 00:58:19;;;;;;;;;;;;;;;11.52;73.47;102158.55;1852562;77;20119;-59
2021/11/07 01:03:18;;;;;;;;;;;;;;;11.53;73.28;102162.94;1824719;79;20118;-59
2021/11/07 01:05:45;;;;;;;;;;;;;;;11.56;73.35;102171.66;1824576;77;20127;-59
2021/11/07 01:08:13;;;;;;;;;;;;;;;11.54;73.26;102173.43;1824668;79;20118;-59
2021/11/07 01:10:41;;;;;;;;;;;;;;;11.52;73.11;102172.59;1824487;79;20123;-59
2021/11/07 01:13:09;;;;;;;;;;;;;;;11.52;72.99;102174.38;1824521;79;20110;-59
2021/11/07 01:15:37;;;;;;;;;;;;;;;11.52;72.94;102176.55;1824713;79;20448;-60
2021/11/07 01:18:05;;;;;;;;;;;;;;;11.46;73.09;102183.28;1824537;79;20122;-59
2021/11/07 01:20:35;;;;;;;;;;;;;;;11.40;73.35;102182.95;1824600;79;20110;-59
2021/11/07 01:23:27;;;;;;;;;;;;;;;11.45;73.23;102188.12;1824624;77;20153;-59
2021/11/07 01:25:46;;;;;;;;;;;;;;;11.44;73.18;102192.99;1816641;78;20118;-59
2021/11/07 01:28:06;;;;;;;;;;;;;;;11.44;73.24;102187.72;1824617;78;20115;-57
2021/11/07 01:30:39;;;;;;;;;;;;;;;11.40;73.31;102197.45;1824516;78;20118;-57
2021/11/07 01:33:13;;;;;;;;;;;;;;;11.38;73.43;102198.40;1824824;77;20119;-57
2021/11/07 01:35:42;;;;;;;;;;;;;;;11.39;73.35;102193.52;1824988;77;20400;-57
2021/11/07 01:43:17;;;;;;;;;;;;;;;11.34;73.40;102195.38;1759011;79;20146;-57
2021/11/07 01:45:54;;;;;;;;;;;;;;;11.33;73.56;102203.74;1824514;79;20162;-57
2021/11/07 01:48:17;;;;;;;;;;;;;;;11.35;73.57;102207.67;1823941;78;20145;-58
2021/11/07 01:50:52;;;;;;;;;;;;;;;11.34;73.51;102207.23;1824578;79;20126;-58
2021/11/07 01:53:21;;;;;;;;;;;;;;;11.30;73.52;102208.20;1825028;78;20190;-57
2021/11/07 01:55:45;;;;;;;;;;;;;;;11.27;73.74;102210.46;1824705;78;20123;-57
2021/11/07 01:58:13;;;;;;;;;;;;;;;11.30;73.73;102210.84;1827787;78;20110;-58
2021/11/07 02:00:42;;;;;;;;;;;;;;;11.28;73.73;102200.31;1847528;78;20123;-57
2021/11/07 02:03:11;;;;;;;;;;;;;;;11.25;73.75;102202.14;1858880;77;20189;-57
2021/11/07 02:05:39;;;;;;;;;;;;;;;11.22;73.88;102199.58;1859410;77;20209;-57
2021/11/07 02:08:07;;;;;;;;;;;;;;;11.17;74.07;102197.88;1859449;77;20114;-57
2021/11/07 02:10:36;;;;;;;;;;;;;;;11.14;74.16;102195.31;1859604;77;20122;-57
2021/11/07 02:13:06;;;;;;;;;;;;;;;11.13;74.19;102192.24;1859437;77;20110;-57
2021/11/07 02:15:34;;;;;;;;;;;;;;;11.15;74.27;102187.81;1859661;77;20388;-57
2021/11/07 02:18:01;;;;;;;;;;;;;;;11.23;74.00;102185.48;1859387;77;20119;-57
2021/11/07 02:20:31;;;;;;;;;;;;;;;11.28;74.00;102181.00;1859452;77;20149;-57
2021/11/07 02:23:00;;;;;;;;;;;;;;;11.29;73.62;102171.75;1859592;77;20177;-57
2021/11/07 02:25:28;;;;;;;;;;;;;;;11.33;73.38;102184.42;1859440;77;20157;-57
2021/11/07 02:27:56;;;;;;;;;;;;;;;11.35;73.24;102183.48;1859454;77;20106;-57
2021/11/07 02:30:24;;;;;;;;;;;;;;;11.38;73.09;102182.58;1859387;76;20123;-58
2021/11/07 02:32:52;;;;;;;;;;;;;;;11.39;72.95;102181.20;1859424;77;20177;-58
2021/11/07 02:35:21;;;;;;;;;;;;;;;11.41;72.91;102183.81;1859410;77;20185;-58
2021/11/07 02:37:49;;;;;;;;;;;;;;;11.41;72.84;102185.13;1859458;77;20185;-58
2021/11/07 02:40:18;;;;;;;;;;;;;;;11.42;72.80;102188.63;1859489;77;20153;-58
2021/11/07 02:42:46;;;;;;;;;;;;;;;11.43;72.69;102192.56;1859440;77;20397;-58
2021/11/07 02:45:15;;;;;;;;;;;;;;;11.44;72.63;102190.36;1859398;77;20122;-58
2021/11/07 02:47:45;;;;;;;;;;;;;;;11.46;72.69;102191.19;1859428;76;20115;-58
2021/11/07 02:50:14;;;;;;;;;;;;;;;11.44;72.80;102182.44;1859460;77;20155;-58
2021/11/07 02:52:43;;;;;;;;;;;;;;;11.47;72.74;102192.05;1859361;77;20174;-58
2021/11/07 02:55:11;;;;;;;;;;;;;;;11.47;72.78;102195.58;1859440;77;20126;-58
2021/11/07 02:57:39;;;;;;;;;;;;;;;11.43;73.23;102195.66;1859357;76;20162;-58
2021/11/07 03:00:09;;;;;;;;;;;;;;;11.42;73.34;102201.39;1847213;77;20111;-58
2021/11/07 03:02:37;;;;;;;;;;;;;;;11.35;73.61;102200.63;1840713;78;20386;-59
2021/11/07 03:05:07;;;;;;;;;;;;;;;11.38;73.54;102198.40;1824241;79;20385;-58
2021/11/07 03:07:35;;;;;;;;;;;;;;;11.37;73.69;102196.64;1823525;79;20186;-58
2021/11/07 03:10:04;;;;;;;;;;;;;;;11.35;73.71;102205.04;1824214;79;20119;-58
2021/11/07 03:12:31;;;;;;;;;;;;;;;11.28;74.25;102208.23;1824268;79;20153;-58
2021/11/07 03:14:59;;;;;;;;;;;;;;;11.30;74.01;102210.84;1824349;79;20188;-58
2021/11/07 03:17:27;;;;;;;;;;;;;;;11.33;73.87;102209.02;1824327;79;20111;-58
2021/11/07 03:19:55;;;;;;;;;;;;;;;11.37;73.74;102212.47;1824316;79;20119;-58
2021/11/07 03:22:24;;;;;;;;;;;;;;;11.39;73.70;102218.58;1824306;79;20147;-58
2021/11/07 03:24:54;;;;;;;;;;;;;;;11.40;73.75;102219.02;1824250;79;20181;-58
2021/11/07 03:27:41;;;;;;;;;;;;;;;11.34;74.09;102216.05;1824379;79;20154;-58
2021/11/07 03:30:21;;;;;;;;;;;;;;;11.35;73.96;102225.67;1824170;77;20115;-58
2021/11/07 03:32:44;;;;;;;;;;;;;;;11.36;73.87;102224.80;1822730;79;20190;-58
2021/11/07 03:35:17;;;;;;;;;;;;;;;11.39;73.80;102226.48;1824322;79;20150;-58
2021/11/07 03:37:45;;;;;;;;;;;;;;;11.39;73.99;102230.45;1824253;77;20127;-58
2021/11/07 03:40:10;;;;;;;;;;;;;;;11.34;74.42;102232.29;1824563;77;20158;-58
2021/11/07 03:42:38;;;;;;;;;;;;;;;11.26;74.83;102231.58;1824275;79;20127;-58
2021/11/07 03:45:07;;;;;;;;;;;;;;;11.20;74.85;102232.10;1824275;79;20149;-58
2021/11/07 03:47:35;;;;;;;;;;;;;;;11.15;74.90;102232.63;1824241;77;20119;-58
2021/11/07 03:50:04;;;;;;;;;;;;;;;11.08;75.48;102233.63;1824289;79;20164;-58
2021/11/07 03:52:32;;;;;;;;;;;;;;;11.07;75.56;102223.99;1824264;79;20401;-58
2021/11/07 03:55:00;;;;;;;;;;;;;;;11.09;75.36;102223.52;1824302;77;20162;-60
2021/11/07 03:57:28;;;;;;;;;;;;;;;11.11;75.21;102217.77;1824320;79;20123;-61
2021/11/07 03:59:56;;;;;;;;;;;;;;;11.13;75.16;102226.97;1833901;77;20165;-62
2021/11/07 04:02:24;;;;;;;;;;;;;;;11.14;75.10;102222.09;1842443;77;20111;-62
2021/11/07 04:04:52;;;;;;;;;;;;;;;11.16;75.16;102229.11;1841814;78;20151;-61
2021/11/07 04:07:20;;;;;;;;;;;;;;;11.18;75.01;102214.13;1841734;78;20150;-61
2021/11/07 04:09:48;;;;;;;;;;;;;;;11.17;75.08;102216.33;1841721;78;20158;-61
2021/11/07 04:12:16;;;;;;;;;;;;;;;11.17;74.99;102215.47;1841690;78;20115;-61
2021/11/07 04:14:44;;;;;;;;;;;;;;;11.16;74.88;102219.02;1841684;78;20123;-61
2021/11/07 04:17:11;;;;;;;;;;;;;;;11.15;74.82;102229.98;1841705;78;20214;-61
2021/11/07 04:19:39;;;;;;;;;;;;;;;11.16;74.70;102233.06;1841722;78;20119;-63
2021/11/07 04:22:09;;;;;;;;;;;;;;;11.16;74.68;102222.52;1841664;78;20107;-61
2021/11/07 04:24:37;;;;;;;;;;;;;;;11.15;74.83;102229.13;1841725;78;20119;-63
2021/11/07 04:27:05;;;;;;;;;;;;;;;11.15;75.29;102236.58;1841755;78;20150;-62
2021/11/07 04:29:33;;;;;;;;;;;;;;;11.13;75.53;102244.97;1841650;76;20115;-62
2021/11/07 04:32:01;;;;;;;;;;;;;;;11.11;75.90;102240.63;1841662;78;20115;-61
2021/11/07 04:34:29;;;;;;;;;;;;;;;11.11;75.59;102244.13;1841711;78;20154;-62
2021/11/07 04:36:57;;;;;;;;;;;;;;;11.15;75.49;102252.39;1841717;78;20119;-62
2021/11/07 04:39:26;;;;;;;;;;;;;;;11.17;75.43;102247.97;1841690;78;20154;-63
2021/11/07 04:41:54;;;;;;;;;;;;;;;11.20;75.44;102251.88;1840270;78;20116;-59
2021/11/07 04:44:22;;;;;;;;;;;;;;;11.20;75.45;102254.52;1840162;78;20171;-59
2021/11/07 04:46:51;;;;;;;;;;;;;;;11.24;75.30;102250.52;1840968;78;20115;-61
2021/11/07 04:49:19;;;;;;;;;;;;;;;11.26;75.30;102250.89;1841676;78;20107;-59
2021/11/07 04:51:48;;;;;;;;;;;;;;;11.28;75.35;102250.87;1835372;78;20124;-59
2021/11/07 04:54:15;;;;;;;;;;;;;;;11.28;75.43;102260.96;1840145;78;20170;-60
2021/11/07 04:56:43;;;;;;;;;;;;;;;11.24;75.81;102260.61;1840825;76;20194;-63
2021/11/07 04:59:11;;;;;;;;;;;;;;;11.18;76.05;102262.90;1841696;78;20127;-60
2021/11/07 05:01:39;;;;;;;;;;;;;;;11.11;76.80;102263.90;1854923;77;20110;-59
2021/11/07 05:04:10;;;;;;;;;;;;;;;11.09;77.23;102263.06;1858051;77;20126;-59
2021/11/07 05:06:38;;;;;;;;;;;;;;;11.09;77.04;102263.06;1857958;76;20204;-60
2021/11/07 05:09:06;;;;;;;;;;;;;;;11.11;76.84;102269.17;1857873;76;20153;-61
2021/11/07 05:11:34;;;;;;;;;;;;;;;11.10;76.90;102270.09;1858563;76;20123;-62
2021/11/07 05:14:01;;;;;;;;;;;;;;;11.10;76.90;102267.45;1859376;77;20126;-62
2021/11/07 05:16:29;;;;;;;;;;;;;;;11.10;76.96;102264.81;1856051;77;20183;-61
2021/11/07 05:18:57;;;;;;;;;;;;;;;11.13;76.75;102264.73;1849595;78;20135;-61
2021/11/07 05:21:25;;;;;;;;;;;;;;;11.15;76.63;102263.40;1841975;78;20110;-62
2021/11/07 05:23:53;;;;;;;;;;;;;;;11.17;76.49;102273.01;1845521;77;20110;-61
2021/11/07 05:26:21;;;;;;;;;;;;;;;11.19;76.46;102279.16;1858744;76;20127;-63
2021/11/07 05:28:59;;;;;;;;;;;;;;;;;;;;;
2021/11/07 05:31:37;;;;;;;;;;;;;;;11.15;76.61;102276.12;1852687;77;20437;-61
2021/11/07 05:34:05;;;;;;;;;;;;;;;11.14;76.53;102284.95;1851348;77;20153;-61
2021/11/07 05:36:34;;;;;;;;;;;;;;;11.18;76.42;102290.58;1849761;78;20158;-61
2021/11/07 05:39:02;;;;;;;;;;;;;;;11.24;76.28;102286.11;1849719;78;20170;-62
2021/11/07 05:41:30;;;;;;;;;;;;;;;11.25;76.30;102286.52;1849699;78;20154;-61
2021/11/07 05:43:58;;;;;;;;;;;;;;;11.30;76.50;102288.17;1849735;78;20119;-61
2021/11/07 05:46:26;;;;;;;;;;;;;;;11.36;76.61;102289.83;1849665;78;20233;-63
2021/11/07 05:48:54;;;;;;;;;;;;;;;11.36;76.49;102289.83;1849680;78;20150;-62
2021/11/07 05:51:22;;;;;;;;;;;;;;;11.36;76.53;102295.11;1849699;78;20170;-62
2021/11/07 05:53:50;;;;;;;;;;;;;;;11.34;76.73;102296.91;1849735;78;20154;-62
2021/11/07 05:56:18;;;;;;;;;;;;;;;11.38;76.54;102294.66;1849702;78;20171;-61
2021/11/07 05:58:46;;;;;;;;;;;;;;;11.47;76.58;102287.91;1849754;78;20146;-62
2021/11/07 06:01:13;;;;;;;;;;;;;;;11.59;76.36;102289.44;1849064;78;20115;-64
2021/11/07 06:03:41;;;;;;;;;;;;;;;11.62;76.26;102297.73;1849749;78;20119;-64
2021/11/07 06:06:09;;;;;;;;;;;;;;;11.59;76.19;102303.48;1849733;78;20123;-63
2021/11/07 06:08:37;;;;;;;;;;;;;;;11.63;76.13;102298.16;1849741;78;20111;-61
2021/11/07 06:11:05;;;;;;;;;;;;;;;11.63;76.34;102297.70;1849716;78;20111;-61
2021/11/07 06:13:32;;;;;;;;;;;;;;;11.66;76.25;102300.75;1849576;78;20158;-64
2021/11/07 06:16:02;;;;;;;;;;;;;;;11.70;76.22;102305.06;1849718;78;20166;-63
2021/11/07 06:18:30;;;;;;;;;;;;;;;11.73;76.09;102307.63;1849737;78;20150;-62
2021/11/07 06:20:59;;;;;;;;;;;;;;;11.74;76.06;102309.38;1849741;78;20107;-63
2021/11/07 06:23:27;;;;;;;;;;;;;;;11.73;76.10;102312.91;1849721;78;20158;-61
2021/11/07 06:25:55;;;;;;;;;;;;;;;11.75;76.05;102312.00;1849877;78;20119;-60
2021/11/07 06:28:22;;;;;;;;;;;;;;;11.76;76.17;102316.81;1849622;78;20166;-58
2021/11/07 06:30:51;;;;;;;;;;;;;;;11.79;75.98;102311.48;1843519;77;20107;-59
2021/11/07 06:33:19;;;;;;;;;;;;;;;11.82;75.91;102302.17;1856501;77;20387;-58
2021/11/07 06:35:47;;;;;;;;;;;;;;;11.82;75.92;102300.86;1842452;78;20143;-59
2021/11/07 06:38:15;;;;;;;;;;;;;;;11.86;76.07;102303.88;1806357;79;20129;-59
2021/11/07 06:40:43;;;;;;;;;;;;;;;11.85;76.09;102299.94;1818717;78;20121;-62
2021/11/07 06:43:11;;;;;;;;;;;;;;;11.90;76.04;102307.36;1830372;78;20108;-62
2021/11/07 06:45:39;;;;;;;;;;;;;;;11.96;76.04;102304.59;1831320;77;20112;-63
2021/11/07 06:48:08;;;;;;;;;;;;;;;12.03;75.86;102302.71;1859824;77;20121;-62
2021/11/07 06:50:36;;;;;;;;;;;;;;;12.03;75.98;102296.11;1863787;77;20143;-62
2021/11/07 06:53:04;;;;;;;;;;;;;;;12.09;75.90;102295.98;1839590;78;20128;-64
2021/11/07 06:55:32;;;;;;;;;;;;;;;12.13;75.81;102289.72;1833464;78;20151;-62
2021/11/07 06:58:01;;;;;;;;;;;;;;;12.21;75.68;102297.05;1802056;80;20126;-62
2021/11/07 07:00:29;;;;;;;;;;;;;;;12.26;75.54;102295.16;1802036;80;20121;-61
2021/11/07 07:02:57;;;;;;;;;;;;;;;12.31;75.52;102298.58;1829834;78;20107;-62
2021/11/07 07:05:26;;;;;;;;;;;;;;;12.34;75.41;102295.02;1830316;78;20117;-62
2021/11/07 07:07:56;;;;;;;;;;;;;;;12.35;75.46;102295.42;1847594;77;20152;-62
2021/11/07 07:10:35;;;;;;;;;;;;;;;12.39;75.40;102297.55;1845814;78;20145;-61
2021/11/07 07:13:05;;;;;;;;;;;;;;;12.46;75.27;102295.19;1845646;77;20126;-62
2021/11/07 07:15:32;;;;;;;;;;;;;;;12.50;75.07;102300.36;1845635;77;20147;-62
2021/11/07 07:34:06;;;;;;;;;;;;;;;12.64;74.86;102306.67;1915298;74;20117;-62
2021/11/07 07:36:31;;;;;;;;;;;;;;;12.69;74.76;102302.16;1922805;73;20186;-58
2021/11/07 07:38:59;;;;;;;;;;;;;;;12.73;74.62;102307.78;1916440;75;20115;-62
2021/11/07 07:41:27;;;;;;;;;;;;;;;12.77;74.55;102309.05;1899530;75;20129;-60
2021/11/07 07:43:57;;;;;;;;;;;;;;;12.79;74.58;102304.58;1869665;77;20145;-58
2021/11/07 07:46:26;;;;;;;;;;;;;;;12.85;74.59;102307.08;1886062;75;20103;-58
2021/11/07 07:48:55;;;;;;;;;;;;;;;12.89;74.48;102304.34;1916626;75;20391;-58
2021/11/07 07:51:24;;;;;;;;;;;;;;;12.96;74.44;102302.39;1923022;74;20426;-60
2021/11/07 07:53:52;;;;;;;;;;;;;;;12.95;74.49;102300.67;1935410;74;20445;-59
2021/11/07 07:56:19;;;;;;;;;;;;;;;12.97;74.41;102304.15;1929457;74;20103;-59
2021/11/07 07:58:47;;;;;;;;;;;;;;;12.96;74.41;102303.72;1916759;75;20158;-58
2021/11/07 08:01:15;;;;;;;;;;;;;;;12.98;74.39;102294.44;1922029;74;20113;-59
2021/11/07 08:03:43;;;;;;;;;;;;;;;13.01;74.33;102302.30;1935633;74;20117;-58
2021/11/07 08:06:11;;;;;;;;;;;;;;;13.05;74.21;102298.20;1930659;73;20114;-59
2021/11/07 08:08:38;;;;;;;;;;;;;;;13.11;74.14;102292.78;1916646;75;20102;-59
2021/11/07 08:11:06;;;;;;;;;;;;;;;13.20;74.00;102292.13;1920887;74;20113;-59
2021/11/07 08:13:34;;;;;;;;;;;;;;;13.29;73.87;102294.53;1935597;74;20117;-59
2021/11/07 08:16:02;;;;;;;;;;;;;;;13.30;73.76;102292.32;1935564;74;20202;-59
2021/11/07 08:18:31;;;;;;;;;;;;;;;13.29;73.70;102294.08;1935585;74;20117;-59
2021/11/07 08:20:59;;;;;;;;;;;;;;;13.27;73.76;102291.06;1935647;74;20489;-59
2021/11/07 08:23:28;;;;;;;;;;;;;;;13.25;73.78;102286.27;1935617;74;20140;-59
2021/11/07 08:25:57;;;;;;;;;;;;;;;13.27;73.72;102293.71;1935660;74;20109;-59
2021/11/07 08:28:25;;;;;;;;;;;;;;;13.29;73.66;102292.75;1935655;74;20382;-59
2021/11/07 08:30:56;;;;;;;;;;;;;;;13.40;73.71;102289.00;1935660;74;20113;-59
2021/11/07 08:33:22;;;;;;;;;;;;;;;13.42;73.62;102289.83;1922416;74;20448;-59
2021/11/07 08:35:50;;;;;;;;;;;;;;;13.40;73.54;102283.72;1901193;74;20103;-58
2021/11/07 08:38:22;;;;;;;;;;;;;;;13.40;73.46;102292.52;1901152;75;20119;-58
2021/11/07 08:40:51;;;;;;;;;;;;;;;13.34;73.46;102286.53;1900872;75;20178;-59
2021/11/07 09:05:27;;;;;;;;;;;;;;;13.62;73.46;102267.67;1901193;74;20147;-58
2021/11/07 09:10:32;;;;;;;;;;;;;;;14.00;73.05;102266.16;1901193;74;20115;-58
2021/11/07 09:13:01;;;;;;;;;;;;;;;14.01;72.86;102260.83;1901070;75;20228;-58
2021/11/07 09:15:30;;;;;;;;;;;;;;;14.03;72.87;102255.48;1901318;74;20369;-59
2021/11/07 09:18:00;;;;;;;;;;;;;;;14.06;72.87;102260.70;1901269;75;20119;-59
2021/11/07 09:23:15;;;;;;;;;;;;;;;14.07;72.84;102263.31;1897421;74;20111;-61
2021/11/07 09:25:48;;;;;;;;;;;;;;;14.16;72.83;102254.20;1899099;75;20115;-58
2021/11/07 09:30:57;;;;;;;;;;;;;;;14.18;72.80;102247.08;1900575;75;20146;-60
2021/11/07 09:33:43;;;;;;;;;;;;;;;14.20;72.80;102243.95;1904230;74;20180;-59
2021/11/07 09:36:01;;;;;;;;;;;;;;;14.21;72.77;102239.05;1924218;74;20113;-59
2021/11/07 09:38:23;;;;;;;;;;;;;;;14.26;72.72;102231.83;1926883;73;20109;-59
2021/11/07 09:40:58;;;;;;;;;;;;;;;14.31;72.66;102227.70;1923400;73;20144;-59
2021/11/07 09:43:23;;;;;;;;;;;;;;;14.31;72.69;102221.55;1865730;77;20152;-59
2021/11/07 09:45:51;;;;;;;;;;;;;;;14.28;72.54;102218.55;1870955;74;20117;-60
2021/11/07 09:48:27;;;;;;;;;;;;;;;14.25;72.57;102214.19;1928596;74;20113;-59
2021/11/07 09:50:52;;;;;;;;;;;;;;;14.33;72.62;102218.39;1928887;73;20117;-61
2021/11/07 09:53:20;;;;;;;;;;;;;;;14.39;72.62;102211.59;1929207;74;20383;-60
2021/11/07 09:55:48;;;;;;;;;;;;;;;14.42;72.72;102210.14;1929339;74;20117;-59
2021/11/07 09:58:16;;;;;;;;;;;;;;;14.47;72.70;102201.59;1929440;74;20110;-58
2021/11/07 10:00:45;;;;;;;;;;;;;;;14.50;72.56;102198.86;1928702;73;20121;-59
2021/11/07 10:03:15;;;;;;;;;;;;;;;14.52;72.48;102194.38;1900474;75;20117;-58
2021/11/07 10:05:45;;;;;;;;;;;;;;;14.52;72.39;102195.70;1902878;74;20433;-59
2021/11/07 10:08:13;;;;;;;;;;;;;;;14.51;72.40;102187.33;1929499;74;20140;-58
2021/11/07 10:11:16;;;;;;;;;;;;;;;14.55;72.41;102186.33;1929398;74;20117;-58
2021/11/07 10:13:28;;;;;;;;;;;;;;;14.64;72.32;102192.69;1921525;74;20375;-59
2021/11/07 10:16:02;;;;;;;;;;;;;;;14.76;72.23;102183.45;1928061;74;20406;-58
2021/11/07 10:18:37;;;;;;;;;;;;;;;14.95;72.16;102180.17;1929194;74;20105;-58
2021/11/07 10:21:01;;;;;;;;;;;;;;;15.15;72.03;102178.16;1928595;74;20113;-58
2021/11/07 10:23:41;;;;;;;;;;;;;;;15.28;71.85;102173.28;1929323;74;20121;-59
2021/11/07 10:26:10;;;;;;;;;;;;;;;15.33;71.57;102176.17;1927760;74;20109;-58
2021/11/07 10:28:37;;;;;;;;;;;;;;;15.38;71.35;102174.66;1928487;74;20168;-58
2021/11/07 10:31:08;;;;;;;;;;;;;;;15.36;70.77;102158.81;1929048;74;20195;-58
2021/11/07 10:33:50;;;;;;;;;;;;;;;15.37;70.69;102159.20;1927782;74;20118;-58
2021/11/07 10:39:14;;;;;;;;;;;;;;;15.38;70.41;102152.98;1916730;75;20189;-59
2021/11/07 10:44:38;;;;;;;;;;;;;;;15.28;70.40;102140.11;1916490;75;20107;-59
2021/11/07 10:47:33;;;;;;;;;;;;;;;15.15;70.23;102148.50;1916019;75;20258;-59
2021/11/07 10:52:41;;;;;;;;;;;;;;;15.02;70.33;102140.11;1916662;75;20114;-59
2021/11/07 10:55:26;;;;;;;;;;;;;;;14.91;70.38;102139.63;1916536;75;20127;-59
2021/11/07 10:57:55;;;;;;;;;;;;;;;14.84;70.42;102136.31;1916565;75;20141;-59
2021/11/07 11:00:32;;;;;;;;;;;;;;;14.79;70.59;102130.77;1976661;72;20140;-56
2021/11/07 11:03:01;;;;;;;;;;;;;;;14.77;70.65;102134.81;1991550;72;20204;-56
2021/11/07 11:05:31;;;;;;;;;;;;;;;14.76;70.61;102132.22;1990888;72;20169;-61
2021/11/07 11:08:01;;;;;;;;;;;;;;;14.71;70.57;102131.50;1991405;72;20164;-59
2021/11/07 11:10:40;;;;;;;;;;;;;;;14.72;70.50;102126.15;1991638;72;20434;-59
2021/11/07 11:13:58;;;;;;;;;;;;;;;14.77;70.44;102120.67;1953045;73;20194;-58
2021/11/07 11:15:48;;;;;;;;;;;;;;;14.82;70.11;102114.76;1929850;73;20108;-64
2021/11/07 11:23:44;;;;;;;;;;;;;;;15.27;68.61;102107.84;1952149;72;20110;-62
2021/11/07 11:26:23;;;;;;;;;;;;;;;15.53;68.09;102109.08;1980029;72;20108;-62
2021/11/07 11:29:00;;;;;;;;;;;;;;;16.07;66.92;102104.34;1946382;74;20528;-62
2021/11/07 11:31:26;;;;;;;;;;;;;;;16.38;66.35;102108.41;1958497;72;20136;-62
2021/11/07 11:33:51;;;;;;;;;;;;;;;16.41;66.17;102102.95;1989265;72;20114;-62
2021/11/07 11:36:30;;;;;;;;;;;;;;;16.30;66.42;102097.22;1978371;72;20104;-62
2021/11/07 11:38:58;;;;;;;;;;;;;;;16.05;66.49;102093.39;1949398;72;20219;-62
2021/11/07 11:41:38;;;;;;;;;;;;;;;15.78;66.84;102097.06;1963731;72;20102;-60
2021/11/07 11:43:59;;;;;;;;;;;;;;;15.55;67.29;102096.61;1989417;72;20114;-63
2021/11/07 11:46:41;;;;;;;;;;;;;;;15.42;67.65;102098.86;1991648;72;20097;-59
2021/11/07 11:52:13;;;;;;;;;;;;;;;15.17;67.92;102094.06;1991651;72;20157;-61
2021/11/07 11:54:49;;;;;;;;;;;;;;;15.11;68.14;102106.23;1987857;72;20219;-62
2021/11/07 11:58:00;;;;;;;;;;;;;;;15.03;68.27;102096.77;1989093;72;20106;-62
2021/11/07 11:59:52;;;;;;;;;;;;;;;14.98;68.34;102101.36;1942903;71;20144;-59
2021/11/07 12:02:41;;;;;;;;;;;;;;;14.94;68.28;102102.40;1990004;72;20114;-60
2021/11/07 12:04:46;;;;;;;;;;;;;;;14.90;68.34;102098.57;1981465;72;20137;-59
2021/11/07 12:07:22;;;;;;;;;;;;;;;14.86;68.37;102097.81;1980298;72;20109;-59
2021/11/07 12:09:59;;;;;;;;;;;;;;;14.79;68.55;102101.16;1990118;72;20141;-63
2021/11/07 12:12:36;;;;;;;;;;;;;;;14.66;68.78;102107.34;1991321;72;20114;-62
2021/11/07 12:15:07;;;;;;;;;;;;;;;14.50;69.24;102107.42;1990460;72;20097;-62
2021/11/07 12:17:30;;;;;;;;;;;;;;;14.39;69.53;102110.89;1989886;72;20110;-63
2021/11/07 12:19:59;;;;;;;;;;;;;;;14.34;69.64;102104.41;1990401;72;20140;-60
2021/11/07 12:22:31;;;;;;;;;;;;;;;14.31;69.69;102100.98;1991570;72;20140;-60
2021/11/07 12:25:02;;;;;;;;;;;;;;;14.33;69.55;102104.02;1990583;72;20109;-60
2021/11/07 12:27:40;;;;;;;;;;;;;;;14.32;69.49;102103.59;1991757;72;20144;-60
2021/11/07 12:30:20;;;;;;;;;;;;;;;14.32;69.51;102100.09;1991333;72;20110;-59
2021/11/07 12:32:48;;;;;;;;;;;;;;;14.41;69.34;102101.11;1982857;70;20142;-60
2021/11/07 12:35:34;;;;;;;;;;;;;;;14.46;69.21;102096.06;2001094;72;20125;-60
2021/11/07 12:40:45;;;;;;;;;;;;;;;14.52;69.07;102099.42;2000959;72;20161;-62
2021/11/07 12:43:20;;;;;;;;;;;;;;;14.50;69.17;102092.84;2000917;72;20114;-60
2021/11/07 12:45:50;;;;;;;;;;;;;;;14.49;69.30;102099.91;2000976;72;20109;-60
2021/11/07 12:48:38;;;;;;;;;;;;;;;14.51;69.29;102100.33;2000965;72;20102;-61
2021/11/07 12:51:08;;;;;;;;;;;;;;;14.49;69.37;102099.05;2000981;72;20348;-61
2021/11/07 12:53:57;;;;;;;;;;;;;;;14.46;69.51;102091.23;2000889;72;20376;-62
2021/11/07 12:56:44;;;;;;;;;;;;;;;14.42;69.59;102086.92;2001218;72;20097;-61
2021/11/07 12:59:13;;;;;;;;;;;;;;;14.32;69.90;102092.14;2001096;72;20169;-62
2021/11/07 13:02:02;;;;;;;;;;;;;;;14.20;70.22;102088.09;2000954;72;20109;-61
2021/11/07 13:04:31;;;;;;;;;;;;;;;14.09;70.44;102101.68;2000970;72;20120;-61
2021/11/07 13:07:00;;;;;;;;;;;;;;;14.01;70.63;102098.42;2000984;72;20372;-61
2021/11/07 13:09:36;;;;;;;;;;;;;;;13.98;70.69;102096.75;2001059;72;20400;-61
2021/11/07 13:12:10;;;;;;;;;;;;;;;13.92;70.81;102086.80;2000039;72;20144;-58
2021/11/07 13:14:46;;;;;;;;;;;;;;;13.83;70.91;102083.97;1999249;72;20160;-58
2021/11/07 13:20:09;;;;;;;;;;;;;;;13.68;71.05;102085.31;1965218;73;20116;-58
2021/11/07 13:23:01;;;;;;;;;;;;;;;13.57;71.18;102081.67;1965555;72;20111;-58
2021/11/07 13:27:47;;;;;;;;;;;;;;;13.45;71.66;102080.73;1996649;72;20172;-58
2021/11/07 13:30:18;;;;;;;;;;;;;;;13.39;71.80;102071.20;2000403;72;20187;-58
2021/11/07 13:32:42;;;;;;;;;;;;;;;13.32;72.08;102070.50;1966782;72;20116;-59
2021/11/07 13:35:11;;;;;;;;;;;;;;;13.34;72.15;102074.89;1962143;73;20116;-60
2021/11/07 13:37:42;;;;;;;;;;;;;;;13.28;72.13;102070.63;1992882;72;20196;-57
2021/11/07 13:40:12;;;;;;;;;;;;;;;13.24;72.26;102066.30;1998096;72;20356;-58
2021/11/07 13:42:41;;;;;;;;;;;;;;;13.23;72.28;102061.95;1966932;72;20116;-59
2021/11/07 13:45:11;;;;;;;;;;;;;;;13.21;72.46;102059.80;1962328;73;20146;-60
2021/11/07 13:47:41;;;;;;;;;;;;;;;13.14;72.78;102063.92;1992840;72;20114;-61
2021/11/07 13:50:11;;;;;;;;;;;;;;;13.13;72.84;102068.82;1997826;72;20136;-61
2021/11/07 13:52:41;;;;;;;;;;;;;;;13.09;72.96;102057.04;1967082;72;20367;-60
2021/11/07 13:55:19;;;;;;;;;;;;;;;13.10;73.11;102059.64;1962342;73;20104;-60
2021/11/07 13:57:47;;;;;;;;;;;;;;;13.11;73.06;102056.10;1995158;72;20136;-60
2021/11/07 14:00:16;;;;;;;;;;;;;;;13.09;73.04;102053.92;1997705;72;20106;-60
2021/11/07 14:02:55;;;;;;;;;;;;;;;13.07;73.03;102055.75;1965692;72;20108;-60
2021/11/07 14:05:23;;;;;;;;;;;;;;;13.06;73.02;102058.00;1962156;73;20163;-59
2021/11/07 14:08:02;;;;;;;;;;;;;;;13.05;72.87;102052.29;1995874;72;20109;-60
2021/11/07 14:10:31;;;;;;;;;;;;;;;13.06;72.83;102056.69;1997098;72;20118;-60
2021/11/07 14:13:01;;;;;;;;;;;;;;;13.06;72.91;102052.72;1962218;73;20418;-59
2021/11/07 14:15:34;;;;;;;;;;;;;;;13.03;72.89;102051.47;1962164;73;20116;-59
2021/11/07 14:18:09;;;;;;;;;;;;;;;13.01;72.92;102053.30;1998480;72;20149;-58
2021/11/07 14:20:48;;;;;;;;;;;;;;;13.01;72.90;102051.97;1997104;72;20114;-59
2021/11/07 14:23:21;;;;;;;;;;;;;;;12.98;72.95;102050.73;1962097;73;20138;-59
2021/11/07 14:25:48;;;;;;;;;;;;;;;12.97;72.96;102049.48;1965123;72;20108;-59
2021/11/07 14:28:25;;;;;;;;;;;;;;;12.98;72.92;102051.19;1997815;72;20897;-59
2021/11/07 14:30:50;;;;;;;;;;;;;;;12.99;72.85;102051.16;1996300;72;20109;-59